sensor_id;sensor_type;location;lat;lon;timestamp;pressure;altitude;pressure_sealevel;temperature;humidity
13954;BME280;7049;49.444;8.522;2023-03-14T00:01:07;76575.38;;;-3.47;100.00
13954;BME280;7049;49.444;8.522;2023-03-14T00:06:10;76587.91;;;-3.47;100.00
13954;BME280;7049;49.444;8.522;2023-03-14T00:11:14;76592.09;;;-3.47;100.00
13954;BME280;7049;49.444;8.522;2023-03-14T00:16:17;76581.66;;;-3.47;99.95
13954;BME280;7049;49.444;8.522;2023-03-14T00:21:22;76583.72;;;-3.47;100.00
13954;BME280;7049;49.444;8.522;2023-03-14T00:26:23;76579.56;;;-3.47;99.85
13954;BME280;7049;49.444;8.522;2023-03-14T00:31:26;76558.63;;;-3.47;99.98
13954;BME280;7049;49.444;8.522;2023-03-14T00:36:27;76571.19;;;-3.47;99.99
13954;BME280;7049;49.444;8.522;2023-03-14T00:41:29;76567.00;;;-3.47;99.81
13954;BME280;7049;49.444;8.522;2023-03-14T00:46:31;76560.72;;;-3.47;99.83
13954;BME280;7049;49.444;8.522;2023-03-14T00:51:33;76560.72;;;-3.47;100.00
13954;BME280;7049;49.444;8.522;2023-03-14T00:56:34;76554.44;;;-3.47;100.00
13954;BME280;7049;49.444;8.522;2023-03-14T01:01:38;76562.81;;;-3.47;100.00
13954;BME280;7049;49.444;8.522;2023-03-14T01:06:39;76569.09;;;-3.47;100.00
13954;BME280;7049;49.444;8.522;2023-03-14T01:11:41;76567.00;;;-3.47;100.00
13954;BME280;7049;49.444;8.522;2023-03-14T01:16:47;76569.09;;;-3.47;100.00
13954;BME280;7049;49.444;8.522;2023-03-14T01:21:49;76562.81;;;-3.47;100.00
13954;BME280;7049;49.444;8.522;2023-03-14T01:26:50;76562.81;;;-3.47;100.00
13954;BME280;7049;49.444;8.522;2023-03-14T01:31:53;76546.09;;;-3.47;100.00
13954;BME280;7049;49.444;8.522;2023-03-14T01:36:54;76548.19;;;-3.47;100.00
13954;BME280;7049;49.444;8.522;2023-03-14T01:41:56;76539.81;;;-3.47;100.00
13954;BME280;7049;49.444;8.522;2023-03-14T01:46:59;76537.72;;;-3.47;100.00
13954;BME280;7049;49.444;8.522;2023-03-14T01:52:02;76529.34;;;-3.47;100.00
13954;BME280;7049;49.444;8.522;2023-03-14T01:57:08;76518.91;;;-3.47;100.00
13954;BME280;7049;49.444;8.522;2023-03-14T02:02:15;76504.25;;;-3.47;100.00
13954;BME280;7049;49.444;8.522;2023-03-14T02:07:19;76500.06;;;-3.47;100.00
13954;BME280;7049;49.444;8.522;2023-03-14T02:12:21;76504.25;;;-3.47;100.00
13954;BME280;7049;49.444;8.522;2023-03-14T02:17:26;76495.88;;;-3.47;100.00
13954;BME280;7049;49.444;8.522;2023-03-14T02:22:28;76487.53;;;-3.47;99.70
13954;BME280;7049;49.444;8.522;2023-03-14T02:27:31;76495.88;;;-3.47;98.45
13954;BME280;7049;49.444;8.522;2023-03-14T02:32:34;76491.69;;;-3.47;98.59
13954;BME280;7049;49.444;8.522;2023-03-14T02:37:39;76487.53;;;-3.47;98.82
13954;BME280;7049;49.444;8.522;2023-03-14T02:42:43;76474.97;;;-3.47;99.30
13954;BME280;7049;49.444;8.522;2023-03-14T02:47:47;76470.78;;;-3.47;100.00
13954;BME280;7049;49.444;8.522;2023-03-14T02:52:50;76487.53;;;-3.47;100.00
13954;BME280;7049;49.444;8.522;2023-03-14T02:57:53;76477.06;;;-3.47;99.82
13954;BME280;7049;49.444;8.522;2023-03-14T03:02:54;76479.16;;;-3.47;100.00
13954;BME280;7049;49.444;8.522;2023-03-14T03:07:56;76466.59;;;-3.47;99.42
13954;BME280;7049;49.444;8.522;2023-03-14T03:12:59;76466.59;;;-3.47;100.00
13954;BME280;7049;49.444;8.522;2023-03-14T03:18:00;76466.59;;;-3.47;100.00
13954;BME280;7049;49.444;8.522;2023-03-14T03:23:02;76462.41;;;-3.47;100.00
13954;BME280;7049;49.444;8.522;2023-03-14T03:28:05;76460.31;;;-3.47;100.00
13954;BME280;7049;49.444;8.522;2023-03-14T03:33:08;76447.78;;;-3.47;100.00
13954;BME280;7049;49.444;8.522;2023-03-14T03:38:10;76441.50;;;-3.47;100.00
13954;BME280;7049;49.444;8.522;2023-03-14T03:43:13;76435.22;;;-3.47;100.00
13954;BME280;7049;49.444;8.522;2023-03-14T03:48:14;76445.69;;;-3.47;100.00
13954;BME280;7049;49.444;8.522;2023-03-14T03:53:16;76435.22;;;-3.47;100.00
13954;BME280;7049;49.444;8.522;2023-03-14T03:58:19;76437.31;;;-3.47;100.00
13954;BME280;7049;49.444;8.522;2023-03-14T04:03:20;76447.78;;;-3.47;99.64
13954;BME280;7049;49.444;8.522;2023-03-14T04:08:22;76462.41;;;-3.47;100.00
13954;BME280;7049;49.444;8.522;2023-03-14T04:13:25;76456.16;;;-3.47;99.22
13954;BME280;7049;49.444;8.522;2023-03-14T04:18:27;76445.69;;;-3.47;98.61
13954;BME280;7049;49.444;8.522;2023-03-14T04:23:30;76433.13;;;-3.47;98.05
13954;BME280;7049;49.444;8.522;2023-03-14T04:28:33;76431.03;;;-3.47;97.48
13954;BME280;7049;49.444;8.522;2023-03-14T04:33:36;76412.22;;;-3.47;96.28
13954;BME280;7049;49.444;8.522;2023-03-14T04:38:38;76416.41;;;-3.47;96.07
13954;BME280;7049;49.444;8.522;2023-03-14T04:43:40;76426.84;;;-3.47;95.96
13954;BME280;7049;49.444;8.522;2023-03-14T04:48:42;76426.84;;;-3.47;95.99
13954;BME280;7049;49.444;8.522;2023-03-14T04:53:43;76426.84;;;-3.47;95.10
13954;BME280;7049;49.444;8.522;2023-03-14T04:58:46;76433.13;;;-3.47;94.75
13954;BME280;7049;49.444;8.522;2023-03-14T05:03:47;76428.94;;;-3.47;94.38
13954;BME280;7049;49.444;8.522;2023-03-14T05:08:49;76428.94;;;-3.47;94.31
13954;BME280;7049;49.444;8.522;2023-03-14T05:13:51;76420.59;;;-3.47;94.08
13954;BME280;7049;49.444;8.522;2023-03-14T05:18:53;76428.94;;;-3.47;93.72
13954;BME280;7049;49.444;8.522;2023-03-14T05:23:54;76420.59;;;-3.47;93.38
13954;BME280;7049;49.444;8.522;2023-03-14T05:28:57;76428.94;;;-3.47;92.42
13954;BME280;7049;49.444;8.522;2023-03-14T05:33:58;76424.78;;;-3.47;91.78
13954;BME280;7049;49.444;8.522;2023-03-14T05:39:00;76410.13;;;-3.47;91.79
13954;BME280;7049;49.444;8.522;2023-03-14T05:44:03;76416.41;;;-3.47;90.70
13954;BME280;7049;49.444;8.522;2023-03-14T05:49:04;76420.59;;;-3.47;91.27
13954;BME280;7049;49.444;8.522;2023-03-14T05:54:05;76420.59;;;-3.47;90.96
13954;BME280;7049;49.444;8.522;2023-03-14T05:59:08;76405.94;;;-3.47;90.40
13954;BME280;7049;49.444;8.522;2023-03-14T06:04:10;76414.31;;;-3.47;90.30
13954;BME280;7049;49.444;8.522;2023-03-14T06:09:11;76416.41;;;-3.47;90.31
13954;BME280;7049;49.444;8.522;2023-03-14T06:14:14;76410.13;;;-3.47;89.71
13954;BME280;7049;49.444;8.522;2023-03-14T06:19:16;76412.22;;;-3.47;89.71
13954;BME280;7049;49.444;8.522;2023-03-14T06:24:17;76412.22;;;-3.47;89.26
13954;BME280;7049;49.444;8.522;2023-03-14T06:29:20;76401.75;;;-3.47;88.23
13954;BME280;7049;49.444;8.522;2023-03-14T06:34:22;76395.47;;;-3.47;88.67
13954;BME280;7049;49.444;8.522;2023-03-14T06:39:23;76387.13;;;-3.47;88.34
13954;BME280;7049;49.444;8.522;2023-03-14T06:44:26;76387.13;;;-3.47;88.43
13954;BME280;7049;49.444;8.522;2023-03-14T06:49:27;76378.75;;;-3.47;87.58
13954;BME280;7049;49.444;8.522;2023-03-14T06:54:29;76374.56;;;-3.47;87.64
13954;BME280;7049;49.444;8.522;2023-03-14T06:59:31;76378.75;;;-3.47;87.83
13954;BME280;7049;49.444;8.522;2023-03-14T07:04:33;76391.31;;;-3.47;87.62
13954;BME280;7049;49.444;8.522;2023-03-14T07:09:35;76389.22;;;-3.47;87.46
13954;BME280;7049;49.444;8.522;2023-03-14T07:14:38;76385.03;;;-3.47;87.00
13954;BME280;7049;49.444;8.522;2023-03-14T07:19:39;76393.41;;;-3.47;87.88
13954;BME280;7049;49.444;8.522;2023-03-14T07:24:41;76387.13;;;-3.47;88.21
13954;BME280;7049;49.444;8.522;2023-03-14T07:29:43;76387.13;;;-3.47;86.86
13954;BME280;7049;49.444;8.522;2023-03-14T07:34:45;76395.47;;;-3.47;87.02
13954;BME280;7049;49.444;8.522;2023-03-14T07:39:46;76389.22;;;-3.47;87.81
13954;BME280;7049;49.444;8.522;2023-03-14T07:44:49;76387.13;;;-3.47;88.90
13954;BME280;7049;49.444;8.522;2023-03-14T07:49:50;76382.94;;;-3.47;89.06
13954;BME280;7049;49.444;8.522;2023-03-14T07:54:52;76387.13;;;-3.47;89.65
13954;BME280;7049;49.444;8.522;2023-03-14T07:59:54;76372.47;;;-3.47;89.42
13954;BME280;7049;49.444;8.522;2023-03-14T08:04:56;76357.84;;;-3.47;89.12
13954;BME280;7049;49.444;8.522;2023-03-14T08:09:57;76339.00;;;-3.47;89.02
13954;BME280;7049;49.444;8.522;2023-03-14T08:15:00;76305.53;;;-3.47;89.23
13954;BME280;7049;49.444;8.522;2023-03-14T08:20:02;76259.53;;;-3.47;87.61
13954;BME280;7049;49.444;8.522;2023-03-14T08:25:07;76247.00;;;-3.47;85.34
13954;BME280;7049;49.444;8.522;2023-03-14T08:30:12;76242.81;;;-3.47;82.96
13954;BME280;7049;49.444;8.522;2023-03-14T08:35:14;76240.72;;;-3.47;82.78
13954;BME280;7049;49.444;8.522;2023-03-14T08:40:16;76249.06;;;-3.47;82.21
13954;BME280;7049;49.444;8.522;2023-03-14T08:45:19;76249.06;;;-3.47;82.39
13954;BME280;7049;49.444;8.522;2023-03-14T08:50:20;76263.72;;;-3.47;82.12
13954;BME280;7049;49.444;8.522;2023-03-14T08:55:23;76261.63;;;-3.47;82.15
13954;BME280;7049;49.444;8.522;2023-03-14T09:00:26;76255.34;;;-3.47;82.14
13954;BME280;7049;49.444;8.522;2023-03-14T09:05:27;76263.72;;;-3.47;82.63
13954;BME280;7049;49.444;8.522;2023-03-14T09:10:28;76278.34;;;-3.47;83.54
13954;BME280;7049;49.444;8.522;2023-03-14T09:15:31;76282.53;;;-3.47;83.67
13954;BME280;7049;49.444;8.522;2023-03-14T09:20:33;76288.81;;;-3.47;84.64
13954;BME280;7049;49.444;8.522;2023-03-14T09:25:34;76284.63;;;-3.47;84.91
13954;BME280;7049;49.444;8.522;2023-03-14T09:30:37;76290.91;;;-3.47;85.84
13954;BME280;7049;49.444;8.522;2023-03-14T09:35:38;76290.91;;;-3.47;85.42
13954;BME280;7049;49.444;8.522;2023-03-14T09:40:40;76290.91;;;-3.47;85.50
13954;BME280;7049;49.444;8.522;2023-03-14T09:45:43;76282.53;;;-3.47;85.71
13954;BME280;7049;49.444;8.522;2023-03-14T09:50:49;76276.25;;;-3.47;85.71
13954;BME280;7049;49.444;8.522;2023-03-14T09:55:51;76276.25;;;-3.47;86.01
13954;BME280;7049;49.444;8.522;2023-03-14T10:00:56;76270.00;;;-3.47;86.49
13954;BME280;7049;49.444;8.522;2023-03-14T10:05:59;76261.63;;;-3.47;86.96
13954;BME280;7049;49.444;8.522;2023-03-14T10:11:03;76255.34;;;-3.47;88.10
13954;BME280;7049;49.444;8.522;2023-03-14T10:16:06;76230.25;;;-3.47;88.12
13954;BME280;7049;49.444;8.522;2023-03-14T10:21:17;76232.34;;;-3.47;87.10
13954;BME280;7049;49.444;8.522;2023-03-14T10:26:24;76228.16;;;-3.47;86.95
13954;BME280;7049;49.444;8.522;2023-03-14T10:31:46;76240.72;;;-3.47;87.14
13954;BME280;7049;49.444;8.522;2023-03-14T10:36:52;76253.25;;;-3.47;87.17
13954;BME280;7049;49.444;8.522;2023-03-14T10:41:55;76265.81;;;-3.47;87.18
13954;BME280;7049;49.444;8.522;2023-03-14T10:47:04;76278.34;;;-3.47;89.82
13954;BME280;7049;49.444;8.522;2023-03-14T10:52:20;76295.09;;;-3.47;91.60
13954;BME280;7049;49.444;8.522;2023-03-14T10:57:23;76305.53;;;-3.47;91.50
13954;BME280;7049;49.444;8.522;2023-03-14T11:02:37;76316.00;;;-3.47;93.48
13954;BME280;7049;49.444;8.522;2023-03-14T11:07:41;76343.19;;;-3.47;95.22
13954;BME280;7049;49.444;8.522;2023-03-14T11:12:51;76357.84;;;-3.47;96.94
13954;BME280;7049;49.444;8.522;2023-03-14T11:23:22;76376.66;;;-3.47;96.96
13954;BME280;7049;49.444;8.522;2023-03-14T11:28:30;76374.56;;;-3.47;97.17
13954;BME280;7049;49.444;8.522;2023-03-14T11:33:37;76395.47;;;-3.47;97.15
13954;BME280;7049;49.444;8.522;2023-03-14T11:38:43;76408.03;;;-3.47;98.02
13954;BME280;7049;49.444;8.522;2023-03-14T11:43:48;76420.59;;;-3.47;98.63
13954;BME280;7049;49.444;8.522;2023-03-14T11:48:58;76435.22;;;-3.47;94.11
13954;BME280;7049;49.444;8.522;2023-03-14T11:54:07;76472.88;;;-3.47;91.06
13954;BME280;7049;49.444;8.522;2023-03-14T11:59:15;76483.34;;;-3.47;90.16
13954;BME280;7049;49.444;8.522;2023-03-14T12:04:28;76502.16;;;-3.47;87.42
13954;BME280;7049;49.444;8.522;2023-03-14T12:09:34;76518.91;;;-3.47;87.31
13954;BME280;7049;49.444;8.522;2023-03-14T12:14:37;76537.72;;;-3.47;84.79
13954;BME280;7049;49.444;8.522;2023-03-14T12:19:41;76575.38;;;-3.47;84.50
13954;BME280;7049;49.444;8.522;2023-03-14T12:24:45;76598.38;;;-3.47;86.26
13954;BME280;7049;49.444;8.522;2023-03-14T12:29:57;76619.28;;;-3.47;84.58
13954;BME280;7049;49.444;8.522;2023-03-14T12:35:07;76654.84;;;-3.47;82.15
13954;BME280;7049;49.444;8.522;2023-03-14T12:40:31;76682.03;;;-3.47;82.80
13954;BME280;7049;49.444;8.522;2023-03-14T12:45:35;76696.69;;;-3.47;83.11
13954;BME280;7049;49.444;8.522;2023-03-14T12:50:46;76719.69;;;-3.47;86.45
13954;BME280;7049;49.444;8.522;2023-03-14T12:55:50;76742.72;;;-3.47;91.10
13954;BME280;7049;49.444;8.522;2023-03-14T13:00:56;76776.19;;;-3.47;89.80
13954;BME280;7049;49.444;8.522;2023-03-14T13:06:01;76788.72;;;-3.47;88.70
13954;BME280;7049;49.444;8.522;2023-03-14T13:11:06;76795.00;;;-3.47;85.43
13954;BME280;7049;49.444;8.522;2023-03-14T13:16:14;76822.19;;;-3.47;80.04
13954;BME280;7049;49.444;8.522;2023-03-14T13:21:19;76805.47;;;-3.47;78.56
13954;BME280;7049;49.444;8.522;2023-03-14T13:26:21;76809.66;;;-3.47;74.21
13954;BME280;7049;49.444;8.522;2023-03-14T13:31:25;76809.66;;;-3.47;71.52
13954;BME280;7049;49.444;8.522;2023-03-14T13:36:28;76811.75;;;-3.47;69.42
13954;BME280;7049;49.444;8.522;2023-03-14T13:41:29;76811.75;;;-3.47;66.42
13954;BME280;7049;49.444;8.522;2023-03-14T13:46:33;76818.00;;;-3.47;58.94
13954;BME280;7049;49.444;8.522;2023-03-14T13:51:38;76822.19;;;-3.47;58.88
13954;BME280;7049;49.444;8.522;2023-03-14T13:56:40;76843.13;;;-3.47;50.87
13954;BME280;7049;49.444;8.522;2023-03-14T14:01:42;76859.84;;;-3.47;46.68
13954;BME280;7049;49.444;8.522;2023-03-14T14:06:47;76868.22;;;-3.47;47.45
13954;BME280;7049;49.444;8.522;2023-03-14T14:11:53;76872.41;;;-3.47;49.60
13954;BME280;7049;49.444;8.522;2023-03-14T14:16:56;76859.84;;;-3.47;44.46
13954;BME280;7049;49.444;8.522;2023-03-14T14:22:00;76830.56;;;-3.47;45.08
13954;BME280;7049;49.444;8.522;2023-03-14T14:27:10;76805.47;;;-3.47;42.60
13954;BME280;7049;49.444;8.522;2023-03-14T14:32:14;76805.47;;;-3.47;42.89
13954;BME280;7049;49.444;8.522;2023-03-14T14:37:20;76803.38;;;-3.47;42.28
13954;BME280;7049;49.444;8.522;2023-03-14T14:42:25;76832.66;;;-3.47;39.37
13954;BME280;7049;49.444;8.522;2023-03-14T14:47:28;76866.13;;;-3.47;39.50
13954;BME280;7049;49.444;8.522;2023-03-14T14:52:41;76872.41;;;-3.47;40.44
13954;BME280;7049;49.444;8.522;2023-03-14T14:57:49;76910.06;;;-3.47;38.41
13954;BME280;7049;49.444;8.522;2023-03-14T15:02:52;76935.16;;;-3.47;38.87
13954;BME280;7049;49.444;8.522;2023-03-14T15:07:56;76962.34;;;-3.47;37.94
13954;BME280;7049;49.444;8.522;2023-03-14T15:12:58;76985.38;;;-3.47;40.23
13954;BME280;7049;49.444;8.522;2023-03-14T15:18:00;76993.75;;;-3.47;38.65
13954;BME280;7049;49.444;8.522;2023-03-14T15:23:07;77010.47;;;-3.47;37.10
13954;BME280;7049;49.444;8.522;2023-03-14T15:28:20;77018.84;;;-3.47;38.05
13954;BME280;7049;49.444;8.522;2023-03-14T15:33:22;77029.31;;;-3.47;37.87
13954;BME280;7049;49.444;8.522;2023-03-14T15:38:25;77020.94;;;-3.47;37.78
13954;BME280;7049;49.444;8.522;2023-03-14T15:43:26;76989.56;;;-3.47;36.88
13954;BME280;7049;49.444;8.522;2023-03-14T15:48:28;76943.53;;;-3.47;37.46
13954;BME280;7049;49.444;8.522;2023-03-14T15:53:31;76901.69;;;-3.47;37.84
13954;BME280;7049;49.444;8.522;2023-03-14T15:58:32;76874.50;;;-3.47;37.25
13954;BME280;7049;49.444;8.522;2023-03-14T16:03:34;76872.41;;;-3.47;36.63
13954;BME280;7049;49.444;8.522;2023-03-14T16:08:37;76841.03;;;-3.47;36.67
13954;BME280;7049;49.444;8.522;2023-03-14T16:13:38;76826.38;;;-3.47;36.02
13954;BME280;7049;49.444;8.522;2023-03-14T16:18:40;76882.88;;;-3.47;37.09
13954;BME280;7049;49.444;8.522;2023-03-14T16:23:43;76966.53;;;-3.47;37.07
13954;BME280;7049;49.444;8.522;2023-03-14T16:28:46;77014.66;;;-3.47;38.13
13954;BME280;7049;49.444;8.522;2023-03-14T16:33:47;77052.31;;;-3.47;38.75
13954;BME280;7049;49.444;8.522;2023-03-14T16:38:50;77085.78;;;-3.47;39.32
13954;BME280;7049;49.444;8.522;2023-03-14T16:43:51;77106.72;;;-3.47;39.83
13954;BME280;7049;49.444;8.522;2023-03-14T16:48:53;77123.44;;;-3.47;40.40
13954;BME280;7049;49.444;8.522;2023-03-14T16:53:56;77152.72;;;-3.47;40.77
13954;BME280;7049;49.444;8.522;2023-03-14T16:58:58;77169.47;;;-3.47;41.05
13954;BME280;7049;49.444;8.522;2023-03-14T17:03:59;77177.84;;;-3.47;41.91
13954;BME280;7049;49.444;8.522;2023-03-14T17:09:02;77186.19;;;-3.47;42.77
13954;BME280;7049;49.444;8.522;2023-03-14T17:14:04;77211.31;;;-3.47;43.30
13954;BME280;7049;49.444;8.522;2023-03-14T17:19:05;77219.69;;;-3.47;46.02
13954;BME280;7049;49.444;8.522;2023-03-14T17:24:08;77251.06;;;-3.47;51.06
13954;BME280;7049;49.444;8.522;2023-03-14T17:29:10;77278.25;;;-3.47;52.25
13954;BME280;7049;49.444;8.522;2023-03-14T17:34:11;77295.00;;;-3.47;51.07
13954;BME280;7049;49.444;8.522;2023-03-14T17:39:14;77320.09;;;-3.47;51.85
13954;BME280;7049;49.444;8.522;2023-03-14T17:44:15;77332.66;;;-3.47;50.27
13954;BME280;7049;49.444;8.522;2023-03-14T17:49:17;77351.47;;;-3.47;51.81
13954;BME280;7049;49.444;8.522;2023-03-14T17:54:20;77370.31;;;-3.47;51.46
13954;BME280;7049;49.444;8.522;2023-03-14T17:59:21;77391.22;;;-3.47;52.51
13954;BME280;7049;49.444;8.522;2023-03-14T18:04:22;77414.25;;;-3.47;53.08
13954;BME280;7049;49.444;8.522;2023-03-14T18:09:25;77437.25;;;-3.47;52.26
13954;BME280;7049;49.444;8.522;2023-03-14T18:14:27;77462.38;;;-3.47;53.45
13954;BME280;7049;49.444;8.522;2023-03-14T18:19:28;77487.47;;;-3.47;55.63
13954;BME280;7049;49.444;8.522;2023-03-14T18:24:31;77518.84;;;-3.47;58.91
13954;BME280;7049;49.444;8.522;2023-03-14T18:29:33;77537.69;;;-3.47;60.66
13954;BME280;7049;49.444;8.522;2023-03-14T18:34:34;77558.63;;;-3.47;62.70
13954;BME280;7049;49.444;8.522;2023-03-14T18:39:37;77590.00;;;-3.47;65.13
13954;BME280;7049;49.444;8.522;2023-03-14T18:44:38;77600.47;;;-3.47;65.77
13954;BME280;7049;49.444;8.522;2023-03-14T18:49:41;77613.00;;;-3.47;67.13
13954;BME280;7049;49.444;8.522;2023-03-14T18:54:43;77617.19;;;-3.47;68.79
13954;BME280;7049;49.444;8.522;2023-03-14T18:59:45;77629.75;;;-3.47;69.85
13954;BME280;7049;49.444;8.522;2023-03-14T19:04:46;77633.94;;;-3.47;68.97
13954;BME280;7049;49.444;8.522;2023-03-14T19:09:49;77629.75;;;-3.47;67.51
13954;BME280;7049;49.444;8.522;2023-03-14T19:14:50;77638.13;;;-3.47;68.15
13954;BME280;7049;49.444;8.522;2023-03-14T19:19:52;77646.50;;;-3.47;67.13
13954;BME280;7049;49.444;8.522;2023-03-14T19:24:54;77665.31;;;-3.47;67.00
13954;BME280;7049;49.444;8.522;2023-03-14T19:29:56;77679.97;;;-3.47;66.90
13954;BME280;7049;49.444;8.522;2023-03-14T19:34:59;77698.81;;;-3.47;69.20
13954;BME280;7049;49.444;8.522;2023-03-14T19:40:02;77723.91;;;-3.47;67.92
13954;BME280;7049;49.444;8.522;2023-03-14T19:45:07;77746.94;;;-3.47;67.83
13954;BME280;7049;49.444;8.522;2023-03-14T19:50:10;77782.50;;;-3.47;68.76
13954;BME280;7049;49.444;8.522;2023-03-14T19:55:13;77801.34;;;-3.47;69.62
13954;BME280;7049;49.444;8.522;2023-03-14T20:00:15;77818.06;;;-3.47;68.63
13954;BME280;7049;49.444;8.522;2023-03-14T20:05:18;77845.28;;;-3.47;66.43
13954;BME280;7049;49.444;8.522;2023-03-14T20:10:21;77851.56;;;-3.47;66.44
13954;BME280;7049;49.444;8.522;2023-03-14T20:15:22;77872.47;;;-3.47;68.08
13954;BME280;7049;49.444;8.522;2023-03-14T20:20:24;77889.22;;;-3.47;68.20
13954;BME280;7049;49.444;8.522;2023-03-14T20:25:28;77905.97;;;-3.47;67.52
13954;BME280;7049;49.444;8.522;2023-03-14T20:30:30;77939.44;;;-3.47;69.52
13954;BME280;7049;49.444;8.522;2023-03-14T20:35:31;77968.72;;;-3.47;71.99
13954;BME280;7049;49.444;8.522;2023-03-14T20:40:34;77989.66;;;-3.47;74.17
13954;BME280;7049;49.444;8.522;2023-03-14T20:45:35;78014.78;;;-3.47;77.06
13954;BME280;7049;49.444;8.522;2023-03-14T20:50:37;78050.34;;;-3.47;78.73
13954;BME280;7049;49.444;8.522;2023-03-14T20:55:42;78085.91;;;-3.47;79.26
13954;BME280;7049;49.444;8.522;2023-03-14T21:00:44;78098.47;;;-3.47;79.60
13954;BME280;7049;49.444;8.522;2023-03-14T21:05:46;78117.31;;;-3.47;81.28
13954;BME280;7049;49.444;8.522;2023-03-14T21:10:50;78152.88;;;-3.47;82.64
13954;BME280;7049;49.444;8.522;2023-03-14T21:15:52;78165.44;;;-3.47;82.88
13954;BME280;7049;49.444;8.522;2023-03-14T21:20:55;78171.72;;;-3.47;83.67
13954;BME280;7049;49.444;8.522;2023-03-14T21:25:57;78173.81;;;-3.47;83.81
13954;BME280;7049;49.444;8.522;2023-03-14T21:31:03;78173.81;;;-3.47;84.86
13954;BME280;7049;49.444;8.522;2023-03-14T21:36:06;78186.38;;;-3.47;84.93
13954;BME280;7049;49.444;8.522;2023-03-14T21:41:09;78190.56;;;-3.47;84.86
13954;BME280;7049;49.444;8.522;2023-03-14T21:46:10;78201.00;;;-3.47;85.47
13954;BME280;7049;49.444;8.522;2023-03-14T21:51:12;78207.28;;;-3.47;85.45
13954;BME280;7049;49.444;8.522;2023-03-14T21:56:15;78219.84;;;-3.47;85.77
13954;BME280;7049;49.444;8.522;2023-03-14T22:01:16;78219.84;;;-3.47;85.88
13954;BME280;7049;49.444;8.522;2023-03-14T22:06:18;78230.31;;;-3.47;85.74
13954;BME280;7049;49.444;8.522;2023-03-14T22:11:21;78236.59;;;-3.47;84.38
13954;BME280;7049;49.444;8.522;2023-03-14T22:16:22;78242.88;;;-3.47;83.14
13954;BME280;7049;49.444;8.522;2023-03-14T22:21:24;78251.25;;;-3.47;83.44
13954;BME280;7049;49.444;8.522;2023-03-14T22:26:26;78265.88;;;-3.47;83.05
13954;BME280;7049;49.444;8.522;2023-03-14T22:31:28;78278.44;;;-3.47;83.54
13954;BME280;7049;49.444;8.522;2023-03-14T22:36:29;78280.53;;;-3.47;83.66
13954;BME280;7049;49.444;8.522;2023-03-14T22:41:32;78282.63;;;-3.47;83.69
13954;BME280;7049;49.444;8.522;2023-03-14T22:46:34;78295.19;;;-3.47;84.16
13954;BME280;7049;49.444;8.522;2023-03-14T22:51:36;78309.84;;;-3.47;83.65
13954;BME280;7049;49.444;8.522;2023-03-14T22:56:39;78318.22;;;-3.47;83.93
13954;BME280;7049;49.444;8.522;2023-03-14T23:01:40;78332.84;;;-3.47;84.25
13954;BME280;7049;49.444;8.522;2023-03-14T23:06:42;78328.66;;;-3.47;84.53
13954;BME280;7049;49.444;8.522;2023-03-14T23:11:44;78345.41;;;-3.47;84.66
13954;BME280;7049;49.444;8.522;2023-03-14T23:16:46;78357.97;;;-3.47;85.04
13954;BME280;7049;49.444;8.522;2023-03-14T23:21:47;78357.97;;;-3.47;84.98
13954;BME280;7049;49.444;8.522;2023-03-14T23:26:50;78364.25;;;-3.47;85.23
13954;BME280;7049;49.444;8.522;2023-03-14T23:31:51;78374.72;;;-3.47;85.01
13954;BME280;7049;49.444;8.522;2023-03-14T23:36:53;78383.09;;;-3.47;84.85
13954;BME280;7049;49.444;8.522;2023-03-14T23:41:55;78395.66;;;-3.47;84.15
13954;BME280;7049;49.444;8.522;2023-03-14T23:46:57;78408.19;;;-3.47;84.17
13954;BME280;7049;49.444;8.522;2023-03-14T23:51:58;78424.94;;;-3.47;83.47
13954;BME280;7049;49.444;8.522;2023-03-14T23:57:01;78431.22;;;-3.47;82.35
